createdAt,value
2018-12-02T00:23:30.377Z,9.80
2018-12-02T00:25:58.795Z,9.80
2018-12-02T00:28:27.174Z,9.90
2018-12-02T00:30:55.830Z,9.80
2018-12-02T00:33:24.235Z,9.80
2018-12-02T00:35:52.611Z,9.90
2018-12-02T00:38:20.997Z,9.90
2018-12-02T00:40:49.398Z,9.90
2018-12-02T00:43:17.783Z,9.90
2018-12-02T00:45:46.185Z,10.00
2018-12-02T00:48:14.560Z,10.00
2018-12-02T00:50:43.022Z,10.00
2018-12-02T00:53:11.454Z,10.00
2018-12-02T00:55:42.486Z,10.10
2018-12-02T00:58:10.850Z,10.10
2018-12-02T01:00:39.317Z,10.10
2018-12-02T01:05:37.574Z,10.10
2018-12-02T01:08:07.045Z,10.10
2018-12-02T01:10:35.867Z,10.10
2018-12-02T01:13:04.981Z,10.10
2018-12-02T01:15:33.406Z,10.10
2018-12-02T01:18:01.803Z,10.10
2018-12-02T01:20:30.199Z,10.10
2018-12-02T01:22:58.596Z,10.10
2018-12-02T01:25:27.029Z,10.10
2018-12-02T01:27:55.414Z,10.10
2018-12-02T01:30:24.905Z,10.20
2018-12-02T01:32:54.332Z,10.20
2018-12-02T01:35:22.860Z,10.20
2018-12-02T01:37:51.325Z,10.20
2018-12-02T01:40:20.699Z,10.20
2018-12-02T01:42:49.821Z,10.10
2018-12-02T01:45:21.147Z,10.20
2018-12-02T01:47:49.591Z,10.20
2018-12-02T01:50:18.964Z,10.10
2018-12-02T01:52:49.348Z,10.00
2018-12-02T01:55:17.744Z,9.90
2018-12-02T01:57:46.529Z,9.80
2018-12-02T02:00:23.596Z,9.70
2018-12-02T02:02:52.299Z,9.60
2018-12-02T02:05:21.881Z,9.60
2018-12-02T02:07:50.345Z,9.60
2018-12-02T02:10:26.911Z,9.50
2018-12-02T02:12:55.347Z,9.50
2018-12-02T02:15:23.996Z,9.50
2018-12-02T02:17:52.465Z,9.40
2018-12-02T02:20:22.736Z,9.40
2018-12-02T02:22:51.172Z,9.40
2018-12-02T02:25:20.486Z,9.40
2018-12-02T02:27:55.368Z,9.40
2018-12-02T02:30:24.948Z,9.40
2018-12-02T02:32:53.349Z,9.30
2018-12-02T02:35:22.272Z,9.40
2018-12-02T02:37:51.791Z,9.30
2018-12-02T02:40:22.264Z,9.30
2018-12-02T02:42:50.682Z,9.30
2018-12-02T02:45:19.436Z,9.30
2018-12-02T02:47:47.890Z,9.30
2018-12-02T02:50:21.201Z,9.20
2018-12-02T02:52:52.955Z,9.20
2018-12-02T02:55:21.391Z,9.20
2018-12-02T02:57:50.160Z,9.20
2018-12-02T03:00:19.472Z,9.20
2018-12-02T03:02:47.868Z,9.20
2018-12-02T03:05:17.244Z,9.30
2018-12-02T03:07:45.654Z,9.30
2018-12-02T03:10:18.919Z,9.30
2018-12-02T03:12:49.511Z,9.20
2018-12-02T03:15:18.556Z,9.30
2018-12-02T03:17:47.386Z,9.30
2018-12-02T03:20:18.911Z,9.30
2018-12-02T03:22:48.711Z,9.30
2018-12-02T03:25:18.232Z,9.30
2018-12-02T03:27:46.994Z,9.30
2018-12-02T03:30:17.521Z,9.30
2018-12-02T03:32:45.930Z,9.30
2018-12-02T03:35:15.639Z,9.40
2018-12-02T03:37:44.075Z,9.40
2018-12-02T03:40:19.652Z,9.40
2018-12-02T03:42:48.297Z,9.40
2018-12-02T03:45:17.549Z,9.40
2018-12-02T03:47:45.981Z,9.40
2018-12-02T03:50:17.822Z,9.40
2018-12-02T03:52:44.181Z,9.40
2018-12-02T03:55:12.646Z,9.40
2018-12-02T03:57:41.123Z,9.50
2018-12-02T04:00:11.098Z,9.40
2018-12-02T04:02:39.495Z,9.50
2018-12-02T04:05:08.888Z,9.50
2018-12-02T04:07:37.287Z,9.50
2018-12-02T04:10:08.672Z,9.50
2018-12-02T04:12:37.051Z,9.60
2018-12-02T04:15:07.391Z,9.60
2018-12-02T04:17:35.839Z,9.60
2018-12-02T04:20:05.534Z,9.60
2018-12-02T04:22:33.928Z,9.60
2018-12-02T04:25:02.320Z,9.60
2018-12-02T04:27:30.696Z,9.60
2018-12-02T04:29:59.107Z,9.70
2018-12-02T04:32:27.533Z,9.70
2018-12-02T04:34:55.928Z,9.70
2018-12-02T04:37:24.326Z,9.70
2018-12-02T04:39:52.743Z,9.70
2018-12-02T04:42:21.120Z,9.70
2018-12-02T04:44:49.556Z,9.70
2018-12-02T04:47:17.981Z,9.70
2018-12-02T04:49:46.361Z,9.80
2018-12-02T04:52:14.780Z,9.70
2018-12-02T04:54:43.212Z,9.80
2018-12-02T04:57:11.611Z,9.80
2018-12-02T04:59:40.003Z,9.70
2018-12-02T05:02:08.387Z,9.80
2018-12-02T05:04:36.792Z,9.80
2018-12-02T05:07:05.572Z,9.80
2018-12-02T05:09:33.963Z,9.80
2018-12-02T05:12:02.383Z,9.80
2018-12-02T05:14:30.805Z,9.80
2018-12-02T05:16:59.209Z,9.80
2018-12-02T05:19:27.596Z,9.80
2018-12-02T05:21:55.996Z,9.80
2018-12-02T05:24:24.416Z,9.80
2018-12-02T05:26:52.804Z,9.80
2018-12-02T05:29:21.169Z,9.80
2018-12-02T05:31:49.585Z,9.90
2018-12-02T05:34:17.973Z,9.90
2018-12-02T05:36:46.438Z,9.90
2018-12-02T05:39:14.991Z,9.90
2018-12-02T05:41:48.795Z,10.00
2018-12-02T05:44:17.173Z,10.10
2018-12-02T05:46:45.604Z,10.10
2018-12-02T05:49:13.966Z,10.10
2018-12-02T05:51:42.376Z,10.20
2018-12-02T05:54:10.759Z,10.20
2018-12-02T05:56:39.169Z,10.30
2018-12-02T05:59:07.547Z,10.30
2018-12-02T06:01:35.967Z,10.30
2018-12-02T06:04:04.723Z,10.30
2018-12-02T06:06:33.164Z,10.30
2018-12-02T06:09:01.553Z,10.30
2018-12-02T06:11:29.940Z,10.30
2018-12-02T06:13:58.334Z,10.40
2018-12-02T06:16:26.720Z,10.30
2018-12-02T06:18:55.100Z,10.30
2018-12-02T06:21:23.497Z,10.30
2018-12-02T06:23:51.873Z,10.20
2018-12-02T06:26:20.276Z,10.20
2018-12-02T06:28:48.668Z,10.20
2018-12-02T06:31:17.060Z,10.20
2018-12-02T06:33:45.460Z,10.20
2018-12-02T06:36:13.861Z,10.20
2018-12-02T06:38:42.286Z,10.20
2018-12-02T06:41:10.672Z,10.10
2018-12-02T06:43:39.040Z,10.10
2018-12-02T06:46:07.812Z,10.20
2018-12-02T06:48:36.193Z,10.20
2018-12-02T06:51:04.588Z,10.20
2018-12-02T06:53:32.959Z,10.20
2018-12-02T06:56:14.045Z,10.20
2018-12-02T07:01:13.047Z,10.20
2018-12-02T07:04:30.888Z,10.20
2018-12-02T07:07:00.241Z,10.30
2018-12-02T07:09:28.632Z,10.30
2018-12-02T07:11:57.050Z,10.40
2018-12-02T07:14:25.468Z,10.40
2018-12-02T07:16:53.875Z,10.40
2018-12-02T07:19:31.132Z,10.40
2018-12-02T07:22:04.511Z,10.30
2018-12-02T07:24:35.656Z,10.30
2018-12-02T07:46:56.817Z,10.70
2018-12-02T07:49:25.207Z,10.60
2018-12-02T07:51:53.643Z,10.60
2018-12-02T07:54:22.022Z,10.60
2018-12-02T07:56:50.412Z,10.60
2018-12-02T07:59:18.804Z,10.60
2018-12-02T08:01:47.200Z,10.50
2018-12-02T08:04:15.618Z,10.60
2018-12-02T08:06:45.082Z,10.60
2018-12-02T08:09:13.464Z,10.60
2018-12-02T08:11:41.865Z,10.60
2018-12-02T08:14:10.450Z,10.60
2018-12-02T08:16:38.883Z,10.60
2018-12-02T08:19:07.376Z,10.60
2018-12-02T08:21:35.831Z,10.60
2018-12-02T08:24:04.296Z,10.70
2018-12-02T08:26:32.689Z,10.70
2018-12-02T08:29:01.147Z,10.70
2018-12-02T08:31:29.540Z,10.80
2018-12-02T08:33:57.984Z,10.90
2018-12-02T08:36:26.408Z,10.90
2018-12-02T08:38:55.133Z,10.90
2018-12-02T08:41:23.560Z,11.00
2018-12-02T08:43:51.961Z,11.00
2018-12-02T08:46:20.355Z,11.10
2018-12-02T08:48:48.791Z,11.20
2018-12-02T08:51:17.662Z,11.20
2018-12-02T08:53:45.695Z,11.30
2018-12-02T08:56:14.105Z,11.30
2018-12-02T08:58:42.533Z,11.30
2018-12-02T09:01:10.934Z,11.30
2018-12-02T09:03:39.356Z,11.30
2018-12-02T09:06:07.769Z,11.40
2018-12-02T09:08:36.165Z,11.30
2018-12-02T09:11:05.029Z,11.40
2018-12-02T09:13:35.521Z,11.40
2018-12-02T09:16:03.924Z,11.40
2018-12-02T09:18:32.452Z,11.40
2018-12-02T09:21:00.908Z,11.50
2018-12-02T09:23:29.288Z,11.50
2018-12-02T09:25:57.701Z,11.60
2018-12-02T09:28:26.239Z,11.60
2018-12-02T09:30:54.717Z,11.60
2018-12-02T09:33:23.117Z,11.70
2018-12-02T09:35:51.503Z,11.70
2018-12-02T09:38:19.952Z,11.70
2018-12-02T09:40:48.355Z,11.80
2018-12-02T09:43:17.116Z,11.90
2018-12-02T09:45:45.530Z,11.90
2018-12-02T09:48:14.134Z,11.90
2018-12-02T09:50:42.548Z,11.90
2018-12-02T09:53:10.978Z,12.00
2018-12-02T09:55:44.319Z,12.00
2018-12-02T09:58:14.587Z,12.00
2018-12-02T10:00:43.415Z,12.00
2018-12-02T10:03:11.820Z,12.00
2018-12-02T10:05:40.235Z,12.00
2018-12-02T10:08:08.605Z,12.00
2018-12-02T10:10:36.995Z,12.00
2018-12-02T10:13:08.277Z,12.00
2018-12-02T10:15:37.776Z,12.10
2018-12-02T10:18:07.332Z,12.10
2018-12-02T10:20:35.958Z,12.10
2018-12-02T10:23:04.493Z,12.10
2018-12-02T10:25:32.923Z,12.10
2018-12-02T10:28:01.332Z,12.10
2018-12-02T10:30:29.753Z,12.20
2018-12-02T10:32:58.850Z,12.10
2018-12-02T10:35:27.276Z,12.00
2018-12-02T10:37:55.696Z,12.10
2018-12-02T10:40:25.877Z,12.10
2018-12-02T10:42:54.735Z,12.00
2018-12-02T10:45:27.330Z,12.10
2018-12-02T10:48:00.040Z,12.20
2018-12-02T10:50:30.104Z,12.10
2018-12-02T10:53:00.584Z,12.20
2018-12-02T10:55:38.596Z,12.20
2018-12-02T10:58:09.072Z,12.20
2018-12-02T11:00:42.867Z,12.30
2018-12-02T11:03:11.272Z,12.30
2018-12-02T11:05:39.668Z,12.30
2018-12-02T11:08:08.425Z,12.30
2018-12-02T11:10:36.804Z,12.30
2018-12-02T11:13:05.399Z,12.40
2018-12-02T11:15:33.800Z,12.30
2018-12-02T11:18:02.304Z,12.30
2018-12-02T11:20:30.707Z,12.40
2018-12-02T11:22:59.145Z,12.50
2018-12-02T11:25:27.600Z,12.60
2018-12-02T11:27:56.097Z,12.50
2018-12-02T11:30:24.467Z,12.50
2018-12-02T11:32:52.853Z,12.50
2018-12-02T11:35:21.224Z,12.60
2018-12-02T11:37:49.661Z,12.60
2018-12-02T11:40:20.317Z,12.60
2018-12-02T11:42:49.872Z,12.70
2018-12-02T11:45:18.349Z,12.70
2018-12-02T11:47:47.848Z,12.80
2018-12-02T11:50:17.390Z,12.80
2018-12-02T11:52:45.881Z,12.90
2018-12-02T11:55:15.935Z,13.00
2018-12-02T11:57:44.392Z,13.00
2018-12-02T12:00:27.995Z,13.00
2018-12-02T12:02:57.444Z,12.90
2018-12-02T12:05:25.928Z,13.00
2018-12-02T12:07:54.771Z,13.00
2018-12-02T12:10:26.269Z,12.80
2018-12-02T12:12:56.741Z,13.00
2018-12-02T12:15:26.443Z,13.00
2018-12-02T12:17:55.591Z,13.00
2018-12-02T12:20:31.053Z,13.00
2018-12-02T12:22:59.465Z,13.10
2018-12-02T12:25:28.044Z,13.20
2018-12-02T12:27:57.588Z,13.20
2018-12-02T12:30:29.539Z,13.10
2018-12-02T12:32:58.181Z,13.40
2018-12-02T12:35:26.796Z,13.00
2018-12-02T12:37:55.246Z,13.40
2018-12-02T12:40:27.008Z,13.40
2018-12-02T12:43:07.123Z,13.40
2018-12-02T12:45:35.498Z,13.30
2018-12-02T12:48:03.914Z,13.30
2018-12-02T12:50:32.290Z,13.40
2018-12-02T12:53:00.700Z,13.40
2018-12-02T12:55:29.123Z,13.50
2018-12-02T12:57:57.516Z,13.40
2018-12-02T13:00:25.946Z,13.40
2018-12-02T13:02:54.406Z,13.50
2018-12-02T13:05:26.273Z,13.30
2018-12-02T13:07:55.419Z,13.30
2018-12-02T13:10:23.801Z,13.30
2018-12-02T13:12:52.245Z,13.30
2018-12-02T13:15:23.141Z,13.30
2018-12-02T13:17:59.949Z,13.30
2018-12-02T13:21:00.521Z,13.20
2018-12-02T13:23:28.958Z,13.30
2018-12-02T13:25:57.368Z,13.30
2018-12-02T13:28:25.793Z,13.30
2018-12-02T13:30:54.189Z,13.20
2018-12-02T13:33:22.577Z,13.20
2018-12-02T13:35:50.956Z,13.20
2018-12-02T13:38:19.403Z,13.20
2018-12-02T13:40:47.978Z,13.20
2018-12-02T13:43:19.944Z,13.20
2018-12-02T13:45:49.112Z,13.20
2018-12-02T13:48:17.738Z,13.20
2018-12-02T13:50:46.164Z,13.30
2018-12-02T13:53:14.572Z,13.30
2018-12-02T13:55:42.987Z,13.30
2018-12-02T13:58:11.791Z,13.20
2018-12-02T14:00:41.866Z,13.20
2018-12-02T14:03:13.776Z,13.20
2018-12-02T14:05:43.543Z,13.20
2018-12-02T14:08:13.652Z,13.10
2018-12-02T14:10:42.150Z,13.10
2018-12-02T14:16:04.412Z,13.00
2018-12-02T14:18:37.046Z,13.00
2018-12-02T14:21:06.095Z,13.00
2018-12-02T14:23:34.824Z,13.00
2018-12-02T14:26:08.377Z,13.00
2018-12-02T14:28:43.904Z,13.00
2018-12-02T14:31:12.489Z,13.00
2018-12-02T14:33:40.892Z,13.00
2018-12-02T14:36:09.308Z,13.10
2018-12-02T14:38:37.842Z,13.10
2018-12-02T14:41:07.041Z,13.20
2018-12-02T14:43:35.444Z,13.20
2018-12-02T14:46:03.891Z,13.20
2018-12-02T14:48:32.327Z,13.20
2018-12-02T14:51:00.712Z,13.20
2018-12-02T14:53:29.156Z,13.20
2018-12-02T14:55:57.560Z,13.10
2018-12-02T14:58:25.973Z,13.00
2018-12-02T15:00:54.387Z,13.00
2018-12-02T15:03:22.806Z,13.10
2018-12-02T15:05:51.364Z,13.10
2018-12-02T15:08:19.842Z,13.20
2018-12-02T15:10:48.294Z,13.20
2018-12-02T15:13:16.796Z,13.10
2018-12-02T15:15:45.226Z,13.10
2018-12-02T15:18:13.796Z,13.10
2018-12-02T15:20:42.241Z,13.00
2018-12-02T15:23:10.665Z,13.00
2018-12-02T15:25:39.085Z,12.90
2018-12-02T15:28:07.517Z,12.90
2018-12-02T15:30:35.917Z,13.00
2018-12-02T15:33:04.428Z,13.00
2018-12-02T15:35:32.873Z,12.90
2018-12-02T15:38:01.262Z,12.90
2018-12-02T15:40:29.857Z,12.90
2018-12-02T15:42:58.276Z,13.00
2018-12-02T15:45:26.677Z,13.00
2018-12-02T15:47:55.172Z,13.00
2018-12-02T15:50:24.453Z,12.90
2018-12-02T15:52:53.163Z,12.90
2018-12-02T15:55:24.191Z,12.90
2018-12-02T15:57:52.654Z,12.90
2018-12-02T16:00:30.108Z,13.00
2018-12-02T16:02:58.542Z,12.90
2018-12-02T16:05:26.988Z,12.90
2018-12-02T16:07:55.356Z,13.00
2018-12-02T16:10:23.767Z,13.00
2018-12-02T16:12:53.051Z,13.10
2018-12-02T16:15:22.981Z,13.10
2018-12-02T16:17:51.989Z,13.10
2018-12-02T16:20:28.851Z,13.10
2018-12-02T16:22:57.260Z,13.10
2018-12-02T16:25:25.639Z,13.10
2018-12-02T16:27:54.091Z,13.10
2018-12-02T16:32:51.852Z,13.00
2018-12-02T16:35:20.473Z,13.10
2018-12-02T16:37:50.740Z,13.00
2018-12-02T16:40:24.480Z,13.00
2018-12-02T16:42:54.069Z,13.10
2018-12-02T16:45:22.509Z,13.00
2018-12-02T16:47:56.928Z,13.10
2018-12-02T16:50:32.313Z,13.00
2018-12-02T16:53:06.441Z,13.00
2018-12-02T16:55:42.168Z,13.00
2018-12-02T16:58:17.840Z,13.10
2018-12-02T17:01:04.344Z,13.10
2018-12-02T17:03:32.759Z,13.10
2018-12-02T17:06:01.174Z,13.20
2018-12-02T17:08:29.667Z,13.20
2018-12-02T17:10:58.142Z,13.40
2018-12-02T17:13:26.733Z,13.20
2018-12-02T17:15:55.276Z,13.30
2018-12-02T17:18:23.659Z,13.10
2018-12-02T17:20:52.117Z,13.10
2018-12-02T17:23:20.524Z,13.20
2018-12-02T17:25:49.035Z,13.20
2018-12-02T17:28:17.427Z,13.20
2018-12-02T17:30:48.557Z,13.30
2018-12-02T17:33:17.095Z,13.30
2018-12-02T17:35:45.526Z,13.20
2018-12-02T17:38:13.943Z,13.20
2018-12-02T17:40:42.360Z,13.10
2018-12-02T17:43:12.325Z,13.10
2018-12-02T17:45:41.096Z,13.10
2018-12-02T17:48:09.529Z,13.00
2018-12-02T17:50:37.961Z,13.10
2018-12-02T17:53:08.237Z,13.10
2018-12-02T17:55:37.682Z,13.00
2018-12-02T17:58:05.266Z,13.00
2018-12-02T18:00:33.692Z,13.00
2018-12-02T18:03:02.880Z,13.00
2018-12-02T18:05:37.772Z,13.00
2018-12-02T18:08:06.630Z,13.00
2018-12-02T18:10:35.036Z,12.90
2018-12-02T18:13:04.157Z,12.90
2018-12-02T18:15:32.542Z,12.90
2018-12-02T18:18:00.960Z,12.90
2018-12-02T18:20:29.373Z,13.00
2018-12-02T18:22:57.760Z,13.00
2018-12-02T18:25:26.241Z,13.00
2018-12-02T18:27:54.663Z,12.90
2018-12-02T18:30:24.482Z,12.90
2018-12-02T18:32:57.274Z,12.90
2018-12-02T18:36:33.942Z,12.90
2018-12-02T18:39:02.757Z,12.90
2018-12-02T18:41:35.500Z,12.90
2018-12-02T18:44:04.278Z,13.00
2018-12-02T18:46:32.692Z,12.80
2018-12-02T18:49:01.144Z,12.80
2018-12-02T18:51:29.562Z,12.70
2018-12-02T18:53:57.976Z,12.70
2018-12-02T18:56:27.716Z,12.70
2018-12-02T18:58:56.148Z,12.70
2018-12-02T19:01:24.553Z,12.70
2018-12-02T19:03:52.971Z,12.70
2018-12-02T19:06:21.364Z,12.70
2018-12-02T19:08:49.795Z,12.80
2018-12-02T19:11:18.383Z,12.90
2018-12-02T19:13:46.828Z,12.90
2018-12-02T19:16:15.253Z,12.90
2018-12-02T19:18:44.623Z,12.90
2018-12-02T19:21:20.195Z,12.90
2018-12-02T19:23:48.648Z,13.00
2018-12-02T19:26:17.079Z,13.00
2018-12-02T19:28:45.485Z,13.00
2018-12-02T19:31:13.923Z,13.00
2018-12-02T19:33:42.453Z,13.00
2018-12-02T19:36:19.891Z,13.00
2018-12-02T19:38:48.288Z,13.00
2018-12-02T19:41:16.706Z,13.00
2018-12-02T19:43:45.156Z,13.00
2018-12-02T19:46:13.806Z,13.00
2018-12-02T19:48:42.251Z,12.90
2018-12-02T19:51:10.633Z,13.00
2018-12-02T19:53:39.028Z,13.00
2018-12-02T19:56:07.473Z,13.00
2018-12-02T19:58:35.866Z,13.00
2018-12-02T20:01:04.360Z,13.00
2018-12-02T20:03:32.757Z,13.00
2018-12-02T20:06:01.146Z,12.90
2018-12-02T20:08:29.512Z,12.90
2018-12-02T20:10:57.900Z,12.90
2018-12-02T20:13:26.339Z,12.90
2018-12-02T20:16:31.698Z,12.90
2018-12-02T20:19:00.129Z,13.00
2018-12-02T20:21:28.517Z,12.90
2018-12-02T20:24:02.493Z,12.90
2018-12-02T20:26:30.912Z,12.90
2018-12-02T20:28:59.303Z,12.90
2018-12-02T20:31:29.277Z,12.80
2018-12-02T20:33:57.697Z,12.80
2018-12-02T20:36:26.159Z,12.90
2018-12-02T20:38:54.627Z,13.00
2018-12-02T20:41:23.094Z,13.00
2018-12-02T20:43:51.492Z,13.00
2018-12-02T20:46:19.916Z,13.00
2018-12-02T20:48:48.301Z,13.10
2018-12-02T20:51:16.727Z,13.10
2018-12-02T20:53:45.165Z,13.00
2018-12-02T20:56:13.569Z,13.00
2018-12-02T20:58:42.005Z,12.90
2018-12-02T21:01:10.556Z,12.90
2018-12-02T21:03:41.650Z,12.90
2018-12-02T21:06:14.539Z,12.90
2018-12-02T21:08:42.958Z,12.80
2018-12-02T21:11:11.390Z,12.80
2018-12-02T21:13:39.791Z,12.80
2018-12-02T21:16:08.200Z,12.80
2018-12-02T21:18:36.965Z,12.80
2018-12-02T21:21:05.759Z,12.80
2018-12-02T21:23:34.306Z,12.80
2018-12-02T21:26:03.937Z,12.80
2018-12-02T21:28:32.328Z,12.80
2018-12-02T21:31:01.099Z,12.80
2018-12-02T21:33:29.568Z,12.70
2018-12-02T21:35:58.100Z,12.70
2018-12-02T21:38:26.529Z,12.70
2018-12-02T21:40:55.039Z,12.70
2018-12-02T21:43:23.452Z,12.70
2018-12-02T21:45:51.894Z,12.60
2018-12-02T21:48:21.114Z,12.60
2018-12-02T21:50:54.021Z,12.60
2018-12-02T21:53:22.439Z,12.70
2018-12-02T21:55:50.851Z,12.80
2018-12-02T21:58:19.303Z,12.80
2018-12-02T22:00:53.020Z,12.60
2018-12-02T22:03:21.497Z,12.50
2018-12-02T22:05:50.047Z,12.40
2018-12-02T22:08:18.509Z,12.50
2018-12-02T22:10:47.225Z,12.60
2018-12-02T22:13:15.634Z,12.60
2018-12-02T22:15:44.073Z,12.70
2018-12-02T22:18:12.512Z,12.70
2018-12-02T22:20:40.905Z,12.60
2018-12-02T22:23:09.579Z,12.50
2018-12-02T22:25:38.023Z,12.40
2018-12-02T22:28:08.171Z,12.30
2018-12-02T22:30:36.660Z,12.30
2018-12-02T22:33:06.056Z,12.40
2018-12-02T22:35:34.732Z,12.40
2018-12-02T22:38:03.135Z,12.50
2018-12-02T22:40:31.592Z,12.60
2018-12-02T22:42:59.992Z,12.60
2018-12-02T22:45:29.384Z,12.70
2018-12-02T22:47:58.164Z,12.70
2018-12-02T22:50:27.929Z,12.70
2018-12-02T22:53:00.259Z,12.70
2018-12-02T22:55:28.817Z,12.70
2018-12-02T22:57:57.245Z,12.60
2018-12-02T23:00:33.165Z,12.70
2018-12-02T23:03:10.491Z,12.70
2018-12-02T23:05:39.655Z,12.60
2018-12-02T23:08:08.237Z,12.60
2018-12-02T23:10:36.909Z,12.60
2018-12-02T23:13:06.673Z,12.60
2018-12-02T23:15:35.165Z,12.50
2018-12-02T23:18:03.754Z,12.60
2018-12-02T23:20:32.213Z,12.50
2018-12-02T23:23:00.592Z,12.50
2018-12-02T23:25:29.055Z,12.50
2018-12-02T23:27:57.484Z,12.40
2018-12-02T23:30:26.592Z,12.40
2018-12-02T23:32:55.151Z,12.40
2018-12-02T23:35:23.630Z,12.50
2018-12-02T23:37:52.804Z,12.50
2018-12-02T23:40:23.412Z,12.40
2018-12-02T23:42:51.954Z,12.40
2018-12-02T23:45:20.769Z,12.30
2018-12-02T23:47:49.193Z,12.30
2018-12-02T23:50:20.193Z,12.40
2018-12-02T23:52:48.716Z,12.40
2018-12-02T23:55:19.024Z,12.40
2018-12-02T23:57:47.633Z,12.40
